Time;durP1;ratioP1;P1;durP2;ratioP2;P2;SDS_P1;SDS_P2;PMS_P1;PMS_P2;Temp;Humidity;BMP_temperature;BMP_pressure;BME280_temperature;BME280_humidity;BME280_pressure;Samples;Min_cycle;Max_cycle;Signal;HPM_P1;HPM_P2
2023/09/25 00:01:19;;;;;;;4.82;2.70;;;;;;;9.26;100.00;94556.63;5049328;28;20049;-57
2023/09/25 00:03:46;;;;;;;4.95;2.50;;;;;;;9.28;100.00;94546.03;5049721;28;20045;-57
2023/09/25 00:06:13;;;;;;;6.30;2.90;;;;;;;9.29;100.00;94546.81;5050654;28;20504;-59
2023/09/25 00:08:39;;;;;;;5.27;2.70;;;;;;;9.32;100.00;94546.81;5050256;28;20226;-59
2023/09/25 00:11:06;;;;;;;5.50;2.90;;;;;;;9.29;100.00;94547.59;5050217;28;20040;-59
2023/09/25 00:13:33;;;;;;;4.55;2.60;;;;;;;9.22;100.00;94557.78;5050713;28;20043;-59
2023/09/25 00:16:00;;;;;;;5.28;2.63;;;;;;;9.28;100.00;94553.50;5050321;28;20064;-59
2023/09/25 00:18:28;;;;;;;6.35;3.00;;;;;;;9.31;100.00;94552.69;5050167;28;20066;-59
2023/09/25 00:20:56;;;;;;;6.17;2.57;;;;;;;9.24;100.00;94542.53;5049649;28;20045;-59
2023/09/25 00:23:22;;;;;;;4.95;2.60;;;;;;;9.19;100.00;94546.44;5050088;28;20045;-59
2023/09/25 00:25:50;;;;;;;5.10;2.55;;;;;;;9.10;100.00;94545.25;5049806;28;20114;-59
2023/09/25 00:28:17;;;;;;;5.35;2.50;;;;;;;9.04;100.00;94542.13;5049749;28;20049;-59
2023/09/25 00:30:44;;;;;;;4.35;2.55;;;;;;;9.02;100.00;94551.91;5049917;28;20041;-58
2023/09/25 00:33:11;;;;;;;6.53;2.70;;;;;;;8.96;100.00;94548.78;5046420;28;20041;-59
2023/09/25 00:35:42;;;;;;;5.05;2.47;;;;;;;8.92;100.00;94537.03;5049916;28;20102;-59
2023/09/25 00:38:08;;;;;;;9.13;4.22;;;;;;;8.97;100.00;94544.84;5049004;28;20619;-59
2023/09/25 00:40:36;;;;;;;6.63;2.47;;;;;;;8.96;100.00;94543.28;5050005;28;20104;-59
2023/09/25 00:43:05;;;;;;;7.13;2.70;;;;;;;8.91;100.00;94540.94;5049262;28;20045;-59
2023/09/25 00:45:37;;;;;;;4.80;2.40;;;;;;;8.96;100.00;94529.59;5049400;28;20076;-59
2023/09/25 00:48:05;;;;;;;5.28;2.20;;;;;;;8.95;100.00;94536.25;5049139;28;20456;-59
2023/09/25 00:50:33;;;;;;;5.13;2.75;;;;;;;8.93;100.00;94533.91;5049467;28;20049;-59
2023/09/25 00:53:06;;;;;;;4.70;2.60;;;;;;;8.95;100.00;94531.56;5047900;28;20041;-59
2023/09/25 00:55:33;;;;;;;6.05;2.83;;;;;;;9.00;100.00;94533.91;5049396;28;20125;-59
2023/09/25 00:58:01;;;;;;;5.27;2.47;;;;;;;8.95;100.00;94539.78;5048961;28;20119;-59
2023/09/25 01:00:27;;;;;;;6.55;2.53;;;;;;;8.86;100.00;94527.66;5049524;28;20040;-59
2023/09/25 01:02:54;;;;;;;5.82;2.72;;;;;;;8.89;100.00;94535.84;5048978;28;20516;-59
2023/09/25 01:05:21;;;;;;;4.95;2.70;;;;;;;8.83;100.00;94540.13;5049510;28;20045;-59
2023/09/25 01:07:48;;;;;;;4.65;2.60;;;;;;;8.80;100.00;94544.44;5048983;28;20075;-59
2023/09/25 01:10:16;;;;;;;4.67;2.50;;;;;;;8.77;100.00;94534.28;5049745;28;20383;-59
2023/09/25 01:12:45;;;;;;;6.60;2.55;;;;;;;8.76;100.00;94540.91;5048497;28;20041;-58
2023/09/25 01:15:14;;;;;;;6.10;2.88;;;;;;;8.69;100.00;94540.13;5031757;28;20041;-59
2023/09/25 01:17:42;;;;;;;5.47;2.65;;;;;;;8.56;100.00;94537.75;5049266;28;20040;-59
2023/09/25 01:20:17;;;;;;;4.43;2.45;;;;;;;8.18;100.00;94534.47;5048187;28;20930;-59
2023/09/25 01:22:48;;;;;;;5.40;2.73;;;;;;;7.99;100.00;94529.34;5048839;28;20049;-58
2023/09/25 01:25:17;;;;;;;5.00;2.40;;;;;;;8.04;100.00;94528.16;5049342;28;20033;-59
2023/09/25 01:27:46;;;;;;;5.72;3.00;;;;;;;8.12;100.00;94527.03;5048655;28;20361;-58
2023/09/25 01:30:14;;;;;;;6.88;2.92;;;;;;;8.67;100.00;94535.06;5048779;28;20043;-59
2023/09/25 01:32:44;;;;;;;4.82;2.70;;;;;;;8.48;100.00;94527.97;5045194;28;20047;-59
2023/09/25 01:35:17;;;;;;;5.33;2.77;;;;;;;8.37;100.00;94530.66;5039706;28;20697;-59
2023/09/25 01:37:45;;;;;;;6.38;2.80;;;;;;;8.13;100.00;94532.13;5048170;28;20346;-58
2023/09/25 01:40:13;;;;;;;5.20;2.88;;;;;;;8.04;100.00;94528.94;5048399;28;20509;-59
2023/09/25 01:42:40;;;;;;;5.47;3.03;;;;;;;8.12;100.00;94527.03;5048648;28;20060;-59
2023/09/25 01:45:09;;;;;;;6.03;3.20;;;;;;;8.06;100.00;94525.84;5027686;28;20121;-59
2023/09/25 01:47:37;;;;;;;5.17;2.90;;;;;;;7.89;100.00;94521.88;5026542;28;20041;-59
2023/09/25 01:50:04;;;;;;;4.95;2.72;;;;;;;7.74;100.00;94523.72;5036626;28;20045;-58
2023/09/25 01:52:31;;;;;;;5.30;3.30;;;;;;;7.86;100.00;94523.41;5028316;28;20060;-59
2023/09/25 01:54:58;;;;;;;4.28;2.63;;;;;;;8.27;100.00;94508.72;5027768;28;20048;-58
2023/09/25 01:57:25;;;;;;;6.28;2.75;;;;;;;8.38;100.00;94510.31;5030059;28;20068;-59
2023/09/25 01:59:52;;;;;;;4.33;2.60;;;;;;;8.31;100.00;94513.03;5032323;28;20390;-59
2023/09/25 02:02:19;;;;;;;4.28;2.58;;;;;;;8.20;100.00;94506.75;5032441;28;20041;-59
2023/09/25 02:04:45;;;;;;;6.45;2.70;;;;;;;8.47;100.00;94501.78;5032334;28;20401;-59
2023/09/25 02:07:14;;;;;;;4.63;2.60;;;;;;;8.51;100.00;94502.56;5031995;28;20103;-59
2023/09/25 02:09:41;;;;;;;4.18;2.50;;;;;;;8.48;100.00;94502.56;5032642;28;20401;-59
2023/09/25 02:12:08;;;;;;;6.63;2.63;;;;;;;8.38;100.00;94495.88;5031499;28;21775;-59
2023/09/25 02:14:35;;;;;;;5.78;2.63;;;;;;;8.31;100.00;94490.38;5031271;28;20429;-59
2023/09/25 02:17:01;;;;;;;5.20;2.80;;;;;;;8.37;100.00;94486.09;5031865;28;23021;-59
2023/09/25 02:19:28;;;;;;;4.65;2.50;;;;;;;8.49;100.00;94490.44;5032220;28;20041;-59
2023/09/25 02:21:55;;;;;;;5.45;2.60;;;;;;;8.57;100.00;94481.06;5031698;28;20669;-59
2023/09/25 02:24:22;;;;;;;7.70;2.70;;;;;;;8.57;100.00;94481.06;5032187;28;20045;-59
2023/09/25 02:26:48;;;;;;;6.55;2.78;;;;;;;8.51;100.00;94477.97;5031508;28;20047;-59
2023/09/25 02:29:15;;;;;;;6.10;2.92;;;;;;;8.31;100.00;94482.97;5032058;28;20538;-59
2023/09/25 02:31:42;;;;;;;4.90;2.70;;;;;;;8.24;100.00;94485.66;5029796;28;20063;-58
2023/09/25 02:34:14;;;;;;;4.72;2.80;;;;;;;8.22;100.00;94477.06;5028617;28;20045;-59
2023/09/25 02:36:41;;;;;;;5.33;2.50;;;;;;;8.21;100.00;94478.25;5032098;28;20044;-59
2023/09/25 02:39:10;;;;;;;4.30;2.72;;;;;;;7.92;100.00;94475.41;5030796;28;20445;-59
2023/09/25 02:41:37;;;;;;;6.82;3.13;;;;;;;7.78;100.00;94473.41;5031958;28;20068;-59
2023/09/25 02:44:03;;;;;;;6.43;2.75;;;;;;;7.95;100.00;94469.19;5031771;28;20104;-59
2023/09/25 02:46:30;;;;;;;4.32;2.60;;;;;;;8.09;100.00;94473.13;5031994;28;20046;-59
2023/09/25 02:48:57;;;;;;;4.63;2.60;;;;;;;8.16;100.00;94478.63;5039469;28;20475;-59
2023/09/25 02:51:24;;;;;;;5.00;2.85;;;;;;;8.16;100.00;94467.69;5046833;28;20495;-59
2023/09/25 02:53:54;;;;;;;4.63;3.00;;;;;;;7.51;100.00;94475.63;5031072;28;20383;-59
2023/09/25 02:56:21;;;;;;;5.80;2.90;;;;;;;7.43;100.00;94482.22;5031521;28;20389;-59
2023/09/25 02:58:47;;;;;;;4.70;2.92;;;;;;;7.30;100.00;94492.63;5030741;28;20054;-58
2023/09/25 03:01:14;;;;;;;6.53;3.20;;;;;;;7.19;100.00;94487.13;5031440;28;20042;-59
2023/09/25 03:03:41;;;;;;;5.38;3.03;;;;;;;6.98;100.00;94481.50;5031362;28;20057;-59
2023/09/25 03:06:08;;;;;;;5.20;2.90;;;;;;;7.01;100.00;94480.75;5030697;28;20763;-59
2023/09/25 03:08:34;;;;;;;4.65;2.70;;;;;;;6.91;100.00;94467.81;5030718;28;20049;-59
2023/09/25 03:11:01;;;;;;;64.75;31.55;;;;;;;6.93;100.00;94471.72;5030682;28;20056;-59
2023/09/25 03:13:28;;;;;;;7.30;3.77;;;;;;;6.87;100.00;94472.47;5031295;28;20048;-59
2023/09/25 03:15:55;;;;;;;5.80;3.10;;;;;;;6.88;100.00;94476.75;5030853;28;20500;-59
2023/09/25 03:18:22;;;;;;;5.15;2.90;;;;;;;7.18;100.00;94474.66;5031189;28;20041;-59
2023/09/25 03:20:48;;;;;;;5.90;3.10;;;;;;;7.06;100.00;94474.94;5030271;28;20034;-58
2023/09/25 03:23:15;;;;;;;6.03;2.63;;;;;;;7.55;100.00;94468.22;5031093;28;20037;-59
2023/09/25 03:25:42;;;;;;;6.03;2.70;;;;;;;7.53;100.00;94478.75;5030280;28;20037;-59
2023/09/25 03:28:09;;;;;;;5.72;2.70;;;;;;;7.47;100.00;94474.81;5030936;28;20033;-59
2023/09/25 03:30:35;;;;;;;6.70;3.00;;;;;;;7.45;100.00;94482.59;5030759;28;20047;-59
2023/09/25 03:33:04;;;;;;;4.47;2.72;;;;;;;7.67;100.00;94474.53;5028791;28;20410;-59
2023/09/25 03:35:30;;;;;;;5.25;2.78;;;;;;;7.64;100.00;94467.09;5030497;28;20041;-59
2023/09/25 03:37:57;;;;;;;4.97;2.40;;;;;;;7.55;100.00;94465.50;5030210;28;20041;-58
2023/09/25 03:40:24;;;;;;;4.40;2.80;;;;;;;7.60;100.00;94478.78;5030451;28;20384;-58
2023/09/25 03:42:50;;;;;;;4.68;2.80;;;;;;;7.53;100.00;94473.28;5030153;28;20552;-59
2023/09/25 03:45:17;;;;;;;4.40;2.67;;;;;;;7.40;100.00;94485.69;5030634;28;20038;-59
2023/09/25 03:47:44;;;;;;;4.57;2.63;;;;;;;7.15;100.00;94480.06;5030283;28;20049;-58
2023/09/25 03:50:11;;;;;;;4.20;2.50;;;;;;;7.40;100.00;94474.75;5030147;28;20056;-59
2023/09/25 03:52:37;;;;;;;5.07;2.65;;;;;;;7.53;100.00;94475.25;5030320;28;20064;-59
2023/09/25 03:55:04;;;;;;;5.68;3.28;;;;;;;6.92;100.00;94486.56;5029944;28;20050;-59
2023/09/25 03:57:31;;;;;;;6.10;2.70;;;;;;;7.05;100.00;94470.66;5030039;28;20045;-59
2023/09/25 03:59:58;;;;;;;5.18;3.20;;;;;;;6.92;100.00;94489.28;5028261;28;20049;-59
2023/09/25 04:02:25;;;;;;;6.37;2.90;;;;;;;6.70;100.00;94485.59;5030359;28;20493;-59
2023/09/25 04:04:51;;;;;;;4.82;2.83;;;;;;;6.60;100.00;94483.56;5029437;28;20046;-59
2023/09/25 04:07:18;;;;;;;6.35;3.88;;;;;;;6.62;100.00;94474.97;5029890;28;20053;-59
2023/09/25 04:09:45;;;;;;;6.80;3.03;;;;;;;6.59;100.00;94485.47;5029990;28;20052;-58
2023/09/25 04:12:12;;;;;;;5.28;3.10;;;;;;;6.58;100.00;94483.94;5029842;28;20433;-59
2023/09/25 04:14:41;;;;;;;5.27;3.20;;;;;;;6.57;100.00;94487.78;5029990;28;20065;-59
2023/09/25 04:17:08;;;;;;;5.63;3.30;;;;;;;6.44;100.00;94486.53;5028902;28;20561;-59
2023/09/25 04:19:35;;;;;;;6.45;3.80;;;;;;;6.33;100.00;94491.06;5029460;28;20376;-59
2023/09/25 04:22:06;;;;;;;6.57;3.90;;;;;;;6.36;100.00;94490.34;5029388;28;20088;-59
2023/09/25 04:24:37;;;;;;;6.10;3.90;;;;;;;6.14;100.00;94492.84;5029758;28;20040;-59
2023/09/25 04:27:04;;;;;;;8.03;4.07;;;;;;;6.03;100.00;94491.91;5028790;28;20413;-58
2023/09/25 04:29:31;;;;;;;11.90;4.70;;;;;;;6.07;100.00;94497.41;5029472;28;20053;-58
2023/09/25 04:31:58;;;;;;;10.75;4.88;;;;;;;5.99;100.00;94491.09;5027597;28;20046;-59
2023/09/25 04:34:25;;;;;;;8.88;4.90;;;;;;;6.00;100.00;94498.91;5030039;28;20394;-59
2023/09/25 04:36:52;;;;;;;10.55;5.00;;;;;;;5.96;100.00;94492.63;5029573;28;20092;-58
2023/09/25 04:39:20;;;;;;;8.73;4.63;;;;;;;5.98;100.00;94495.75;5029747;28;20110;-59
2023/09/25 04:41:47;;;;;;;9.18;4.68;;;;;;;5.95;100.00;94498.44;5029398;28;20041;-58
2023/09/25 04:44:14;;;;;;;8.90;4.72;;;;;;;5.95;100.00;94496.50;5029905;28;20060;-59
2023/09/25 04:46:41;;;;;;;8.80;4.82;;;;;;;5.90;100.00;94504.97;5029957;28;20046;-59
2023/09/25 04:49:08;;;;;;;9.43;4.93;;;;;;;5.92;100.00;94507.34;5048622;28;20465;-59
2023/09/25 04:51:35;;;;;;;7.63;4.30;;;;;;;5.79;100.00;94499.41;5049661;28;20186;-59
2023/09/25 04:54:03;;;;;;;7.32;4.43;;;;;;;5.82;100.00;94503.31;5047065;28;20059;-59
2023/09/25 04:56:30;;;;;;;8.07;4.68;;;;;;;5.71;100.00;94494.22;5049546;28;20613;-59
2023/09/25 04:58:57;;;;;;;7.35;4.70;;;;;;;5.67;100.00;94498.84;5048812;28;20045;-59
2023/09/25 05:01:24;;;;;;;8.43;4.32;;;;;;;5.67;100.00;94502.34;5049471;28;20098;-59
2023/09/25 05:03:51;;;;;;;6.80;4.20;;;;;;;5.64;100.00;94505.81;5048899;28;20048;-58
2023/09/25 05:06:19;;;;;;;7.68;4.70;;;;;;;5.60;100.00;94503.06;5031509;28;20482;-59
2023/09/25 05:08:46;;;;;;;13.57;5.20;;;;;;;5.54;100.00;94507.25;5048625;28;20045;-59
2023/09/25 05:11:13;;;;;;;8.55;4.63;;;;;;;5.52;100.00;94512.28;5049189;28;20049;-59
2023/09/25 05:13:40;;;;;;;8.48;4.90;;;;;;;5.37;100.00;94505.88;5049205;28;20590;-59
2023/09/25 05:16:06;;;;;;;9.43;4.90;;;;;;;5.39;100.00;94513.63;5048874;28;20036;-59
2023/09/25 05:18:33;;;;;;;11.95;4.70;;;;;;;5.36;100.00;94517.88;5048005;28;20047;-59
2023/09/25 05:21:00;;;;;;;9.25;5.07;;;;;;;5.40;100.00;94513.28;5048694;28;20263;-59
2023/09/25 05:23:27;;;;;;;9.05;4.88;;;;;;;5.34;100.00;94513.97;5048668;28;20033;-59
2023/09/25 05:25:58;;;;;;;8.80;4.72;;;;;;;5.35;100.00;94520.97;5048723;28;20041;-58
2023/09/25 05:28:25;;;;;;;12.70;6.60;;;;;;;5.18;100.00;94522.28;5048673;28;20037;-59
2023/09/25 05:30:56;;;;;;;16.85;8.13;;;;;;;5.19;100.00;94521.94;5047912;28;20098;-59
2023/09/25 05:33:23;;;;;;;17.83;8.20;;;;;;;5.17;100.00;94523.44;5048870;28;20043;-58
2023/09/25 05:35:49;;;;;;;14.45;7.13;;;;;;;5.28;100.00;94521.66;5048404;28;20051;-58
2023/09/25 05:38:18;;;;;;;11.52;6.07;;;;;;;5.33;100.00;94520.56;5048737;28;20158;-59
2023/09/25 05:40:46;;;;;;;9.50;5.30;;;;;;;5.31;100.00;94520.94;5048430;28;20049;-58
2023/09/25 05:43:12;;;;;;;9.98;4.97;;;;;;;5.35;100.00;94524.50;5048787;28;20048;-59
2023/09/25 05:45:39;;;;;;;9.15;4.88;;;;;;;5.29;100.00;94523.25;5049137;28;20039;-59
2023/09/25 05:48:06;;;;;;;8.25;4.90;;;;;;;5.21;100.00;94527.00;5047976;28;20041;-59
2023/09/25 05:50:34;;;;;;;11.40;5.43;;;;;;;5.27;100.00;94524.75;5049005;28;20059;-59
2023/09/25 05:53:01;;;;;;;8.27;4.93;;;;;;;5.35;100.00;94526.41;5048186;28;20417;-58
2023/09/25 05:55:28;;;;;;;9.75;5.10;;;;;;;5.39;100.00;94519.09;5048928;28;20049;-58
2023/09/25 05:57:55;;;;;;;12.13;5.10;;;;;;;5.39;100.00;94516.38;5047725;28;20497;-58
2023/09/25 06:00:23;;;;;;;10.10;4.72;;;;;;;5.44;100.00;94520.72;5048732;28;20045;-59
2023/09/25 06:02:50;;;;;;;7.55;4.60;;;;;;;5.56;100.00;94526.72;5048259;28;20047;-58
2023/09/25 06:05:18;;;;;;;7.70;4.63;;;;;;;5.59;100.00;94519.75;5046659;28;20037;-59
2023/09/25 06:07:44;;;;;;;9.10;4.47;;;;;;;5.72;100.00;94518.38;5047933;28;20052;-58
2023/09/25 06:10:12;;;;;;;9.43;4.95;;;;;;;5.68;100.00;94514.03;5048183;28;20036;-59
2023/09/25 06:12:42;;;;;;;10.13;5.22;;;;;;;5.76;100.00;94516.47;5047731;28;20414;-59
2023/09/25 06:15:10;;;;;;;8.10;4.35;;;;;;;5.88;100.00;94517.41;5046848;28;20260;-59
2023/09/25 06:17:38;;;;;;;7.90;4.77;;;;;;;5.74;100.00;94523.47;5047745;28;20047;-59
2023/09/25 06:20:13;;;;;;;9.00;5.40;;;;;;;5.62;100.00;94523.69;5047662;28;20482;-58
2023/09/25 06:22:40;;;;;;;8.70;5.38;;;;;;;5.84;100.00;94517.38;5047534;28;20047;-59
2023/09/25 06:25:11;;;;;;;11.18;5.72;;;;;;;5.81;100.00;94515.38;5046660;28;20037;-59
2023/09/25 06:27:39;;;;;;;11.43;5.70;;;;;;;6.02;100.00;94509.44;5047608;28;20085;-59
2023/09/25 06:30:09;;;;;;;9.90;5.50;;;;;;;5.92;100.00;94519.00;5046739;28;20291;-59
2023/09/25 06:32:36;;;;;;;9.68;5.43;;;;;;;6.15;100.00;94515.41;5047704;28;20059;-59
2023/09/25 06:35:05;;;;;;;9.80;5.78;;;;;;;6.37;100.00;94514.47;5034297;28;20044;-59
2023/09/25 06:37:32;;;;;;;9.57;5.40;;;;;;;6.31;100.00;94524.16;5047477;28;20049;-58
2023/09/25 06:40:09;;;;;;;9.77;5.57;;;;;;;6.48;100.00;94519.25;5047138;28;20045;-59
2023/09/25 06:42:40;;;;;;;9.10;4.87;;;;;;;6.70;100.00;94518.31;5048315;28;20049;-59
2023/09/25 06:45:08;;;;;;;9.70;4.63;;;;;;;6.81;100.00;94518.41;5021720;28;20042;-59
2023/09/25 06:47:35;;;;;;;8.27;4.75;;;;;;;7.05;100.00;94517.03;5031624;28;20049;-58
2023/09/25 06:50:01;;;;;;;8.73;4.70;;;;;;;7.17;100.00;94518.69;5022196;28;22170;-59
2023/09/25 06:52:29;;;;;;;7.57;4.00;;;;;;;7.34;100.00;94519.97;5030432;28;20119;-58
2023/09/25 06:54:56;;;;;;;8.87;4.20;;;;;;;7.38;100.00;94515.31;5029875;28;20037;-59
2023/09/25 06:57:23;;;;;;;7.95;4.60;;;;;;;7.40;100.00;94519.25;5031220;28;20402;-59
2023/09/25 06:59:50;;;;;;;9.77;4.57;;;;;;;7.55;100.00;94514.66;5030661;28;20044;-59
2023/09/25 07:02:17;;;;;;;8.60;4.60;;;;;;;7.63;100.00;94509.25;5031364;28;20063;-59
2023/09/25 07:04:44;;;;;;;8.48;4.72;;;;;;;7.89;100.00;94514.44;5030568;28;20057;-58
2023/09/25 07:07:11;;;;;;;9.00;4.90;;;;;;;8.04;100.00;94528.16;5031400;28;20411;-59
2023/09/25 07:09:38;;;;;;;8.52;4.57;;;;;;;8.20;100.00;94517.69;5030806;28;20052;-59
2023/09/25 07:12:05;;;;;;;7.13;4.70;;;;;;;8.22;100.00;94522.78;5030954;28;20041;-59
2023/09/25 07:14:33;;;;;;;9.27;4.40;;;;;;;8.25;100.00;94522.78;5030842;28;20045;-59
2023/09/25 07:16:59;;;;;;;7.72;4.25;;;;;;;9.07;100.00;94515.91;5030887;28;20060;-59
2023/09/25 07:19:26;;;;;;;8.17;4.33;;;;;;;12.06;100.00;94516.69;5029687;28;20045;-60
2023/09/25 07:21:53;;;;;;;8.48;3.70;;;;;;;15.94;100.00;94510.28;5030462;28;20059;-60
2023/09/25 07:24:19;;;;;;;5.45;3.80;;;;;;;18.58;87.43;94509.25;5031120;28;20045;-60
2023/09/25 07:26:46;;;;;;;6.57;3.40;;;;;;;19.12;75.94;94510.81;5030439;28;20063;-60
2023/09/25 07:29:13;;;;;;;6.80;4.03;;;;;;;18.85;75.07;94509.41;5030359;28;20060;-60
2023/09/25 07:32:00;;;;;;;6.90;3.60;;;;;;;20.52;68.83;94502.25;5030105;28;20112;-60
2023/09/25 07:34:29;;;;;;;7.50;3.70;;;;;;;22.06;61.57;94511.00;5031205;28;20445;-60
2023/09/25 07:36:55;;;;;;;6.15;3.90;;;;;;;23.81;51.40;94503.69;5029997;28;20042;-61
2023/09/25 07:39:23;;;;;;;7.05;3.50;;;;;;;23.47;50.67;94510.81;5030574;28;20042;-61
2023/09/25 07:41:50;;;;;;;7.03;3.30;;;;;;;24.16;49.70;94505.66;5029931;28;20049;-60
2023/09/25 07:44:16;;;;;;;5.43;3.20;;;;;;;25.19;45.69;94497.06;5030932;28;20050;-60
2023/09/25 07:46:47;;;;;;;5.15;2.83;;;;;;;24.64;45.75;94507.28;5029952;28;20383;-60
2023/09/25 07:49:14;;;;;;;3.95;2.42;;;;;;;24.27;43.59;94507.84;5028877;28;20095;-58
2023/09/25 07:51:41;;;;;;;3.38;2.10;;;;;;;25.31;42.82;94498.72;5030847;28;20518;-58
2023/09/25 07:54:08;;;;;;;3.10;1.88;;;;;;;25.08;41.11;94501.31;5028963;28;21800;-58
2023/09/25 07:56:35;;;;;;;3.70;2.10;;;;;;;24.07;43.87;94497.41;5030522;28;20502;-58
2023/09/25 07:59:02;;;;;;;5.65;1.60;;;;;;;23.31;46.96;94495.28;5030078;28;20049;-59
2023/09/25 08:01:29;;;;;;;3.70;2.00;;;;;;;25.64;40.63;94494.66;5030945;28;20041;-58
2023/09/25 08:03:57;;;;;;;3.47;1.75;;;;;;;26.39;39.15;94495.31;5030074;28;20045;-58
2023/09/25 08:06:24;;;;;;;3.85;1.60;;;;;;;26.83;36.42;94502.38;5030252;28;20045;-58
2023/09/25 08:08:54;;;;;;;2.60;1.60;;;;;;;27.98;35.64;94494.22;5029967;28;20041;-58
2023/09/25 08:11:21;;;;;;;3.10;1.80;;;;;;;29.35;32.48;94489.47;5030611;28;20042;-59
2023/09/25 08:13:48;;;;;;;4.45;1.80;;;;;;;27.56;35.92;94492.47;5029865;28;20410;-58
2023/09/25 08:16:16;;;;;;;3.33;1.70;;;;;;;26.90;38.12;94499.06;5030605;28;20042;-59
2023/09/25 08:18:44;;;;;;;3.47;1.85;;;;;;;29.33;33.93;94492.81;5029957;28;20416;-58
2023/09/25 08:21:10;;;;;;;3.17;1.67;;;;;;;30.26;31.93;94488.09;5030134;28;20041;-58
2023/09/25 08:23:37;;;;;;;3.60;1.92;;;;;;;30.78;30.50;94486.16;5030449;28;20048;-59
2023/09/25 08:26:07;;;;;;;3.38;1.80;;;;;;;30.12;30.29;94489.25;5029847;28;20414;-59
2023/09/25 08:28:34;;;;;;;3.47;1.55;;;;;;;31.09;28.71;94488.84;5029720;28;20099;-59
2023/09/25 08:31:01;;;;;;;3.95;1.80;;;;;;;30.48;28.81;94489.13;5029714;28;20045;-58
2023/09/25 08:33:27;;;;;;;3.10;1.83;;;;;;;31.51;28.19;94487.22;5019383;28;20041;-59
2023/09/25 08:35:54;;;;;;;4.95;1.80;;;;;;;31.57;28.12;94498.44;5017402;28;20042;-59
2023/09/25 08:38:21;;;;;;;3.17;1.60;;;;;;;28.94;30.88;94495.91;5030170;28;20033;-59
2023/09/25 08:40:49;;;;;;;3.60;1.77;;;;;;;28.33;32.31;94500.53;5029570;28;20044;-59
2023/09/25 08:43:16;;;;;;;4.25;1.70;;;;;;;30.06;31.11;94494.22;5029811;28;20048;-59
2023/09/25 08:45:48;;;;;;;3.40;1.80;;;;;;;31.84;27.60;94499.28;5029734;28;20045;-59
2023/09/25 08:48:17;;;;;;;4.20;1.80;;;;;;;33.15;26.28;94487.66;5029499;28;20038;-58
2023/09/25 08:50:45;;;;;;;2.88;1.50;;;;;;;33.07;25.41;94486.78;5029411;28;20037;-59
2023/09/25 08:53:13;;;;;;;3.15;1.60;;;;;;;32.42;26.83;94489.97;5029433;28;20498;-59
2023/09/25 08:55:42;;;;;;;3.33;1.70;;;;;;;32.10;26.32;94495.00;5029638;28;20410;-59
2023/09/25 08:58:09;;;;;;;4.17;1.57;;;;;;;32.68;26.54;94487.66;5028509;28;21667;-59
2023/09/25 09:00:38;;;;;;;3.28;1.42;;;;;;;34.13;24.26;94481.91;5029567;28;20037;-59
2023/09/25 09:03:05;;;;;;;2.80;1.50;;;;;;;33.66;24.59;94491.41;5028972;28;20053;-59
2023/09/25 09:05:32;;;;;;;3.03;1.60;;;;;;;33.87;24.62;94485.69;5029493;28;20053;-59
2023/09/25 09:08:00;;;;;;;3.55;1.40;;;;;;;35.55;22.73;94482.94;5028897;28;20041;-59
2023/09/25 09:10:38;;;;;;;3.50;1.47;;;;;;;34.90;23.08;94480.28;5029633;28;20041;-59
2023/09/25 09:13:10;;;;;;;3.85;1.70;;;;;;;34.79;22.76;94478.53;5028711;28;20051;-60
2023/09/25 09:15:39;;;;;;;2.70;1.40;;;;;;;35.13;22.42;94479.59;5029539;28;20099;-59
2023/09/25 09:18:25;;;;;;;2.42;1.40;;;;;;;36.12;21.70;94481.06;5029153;28;21013;-60
2023/09/25 09:20:55;;;;;;;3.72;1.70;;;;;;;32.91;24.01;94480.16;5028603;28;20049;-59
2023/09/25 09:23:40;;;;;;;2.70;1.47;;;;;;;33.85;23.92;94474.09;5029181;28;20037;-60
2023/09/25 09:26:12;;;;;;;3.75;1.70;;;;;;;34.84;23.05;94468.28;5028496;28;20056;-60
2023/09/25 09:28:40;;;;;;;4.25;1.60;;;;;;;35.09;22.50;94476.34;5029031;28;20041;-59
2023/09/25 09:31:07;;;;;;;3.22;1.63;;;;;;;34.93;22.59;94475.53;5028464;28;21430;-60
2023/09/25 09:33:41;;;;;;;4.35;1.63;;;;;;;36.07;21.87;94484.88;5020814;28;20044;-59
2023/09/25 09:36:09;;;;;;;4.17;1.50;;;;;;;35.44;22.26;94474.75;5023820;28;20991;-60
2023/09/25 09:38:37;;;;;;;3.00;1.50;;;;;;;34.93;22.93;94462.06;5028944;28;20409;-60
2023/09/25 09:41:06;;;;;;;2.45;1.55;;;;;;;34.10;22.71;94469.53;5020182;28;20043;-59
2023/09/25 09:43:33;;;;;;;2.72;1.50;;;;;;;33.97;23.00;94469.66;5029001;28;20041;-60
2023/09/25 09:46:00;;;;;;;2.97;1.70;;;;;;;34.43;22.40;94461.44;5028636;28;20537;-59
2023/09/25 09:48:31;;;;;;;2.87;1.40;;;;;;;34.40;22.41;94454.75;5028727;28;20053;-59
2023/09/25 09:51:03;;;;;;;3.55;1.50;;;;;;;33.42;23.44;94465.56;5028518;28;20041;-59
2023/09/25 09:53:34;;;;;;;2.60;1.40;;;;;;;34.81;21.59;94463.69;5029007;28;20052;-59
2023/09/25 09:56:01;;;;;;;2.55;1.30;;;;;;;34.91;21.21;94453.28;5028659;28;20482;-59
2023/09/25 09:58:28;;;;;;;3.85;1.40;;;;;;;35.51;21.54;94459.72;5028080;28;20046;-60
2023/09/25 10:00:57;;;;;;;2.43;1.30;;;;;;;36.47;19.73;94455.69;5028540;28;20060;-60
2023/09/25 10:03:25;;;;;;;2.88;1.17;;;;;;;36.39;20.41;94455.72;5028423;28;20037;-61
2023/09/25 10:05:53;;;;;;;2.75;1.40;;;;;;;36.48;20.13;94452.25;5028041;28;20049;-60
2023/09/25 10:08:21;;;;;;;2.80;1.20;;;;;;;37.26;19.67;94455.59;5029045;28;20068;-60
2023/09/25 10:10:49;;;;;;;2.70;1.40;;;;;;;36.75;19.37;94454.69;5028232;28;20422;-60
2023/09/25 10:13:26;;;;;;;2.43;1.10;;;;;;;37.04;19.27;94446.53;5029152;28;20052;-60
2023/09/25 10:15:58;;;;;;;2.53;1.10;;;;;;;37.31;18.90;94429.63;5028459;28;20053;-60
2023/09/25 10:18:29;;;;;;;3.58;1.33;;;;;;;36.99;18.93;94448.28;5030990;28;20047;-60
2023/09/25 10:21:09;;;;;;;2.67;1.17;;;;;;;37.34;18.77;94445.59;5032226;28;20049;-60
2023/09/25 10:23:54;;;;;;;2.38;1.20;;;;;;;36.23;19.16;94449.28;5032946;28;20052;-60
2023/09/25 10:26:24;;;;;;;2.97;1.30;;;;;;;36.76;19.36;94441.88;5031581;28;20314;-60
2023/09/25 10:29:13;;;;;;;2.70;1.30;;;;;;;35.56;19.91;94444.50;5032173;28;20049;-60
2023/09/25 10:31:47;;;;;;;2.75;1.30;;;;;;;36.00;19.94;94435.00;5030895;28;20037;-60
2023/09/25 10:34:14;;;;;;;2.25;1.20;;;;;;;34.67;20.84;94433.81;5028100;28;21814;-60
2023/09/25 10:36:43;;;;;;;2.63;1.23;;;;;;;37.96;18.65;94425.13;5032406;28;20041;-60
2023/09/25 10:39:15;;;;;;;2.70;1.30;;;;;;;36.88;19.23;94427.91;5031313;28;21582;-61
2023/09/25 10:41:44;;;;;;;2.97;1.10;;;;;;;37.78;18.22;94427.94;5032395;28;20054;-60
2023/09/25 10:44:12;;;;;;;2.30;1.20;;;;;;;37.87;18.02;94434.34;5031554;28;20049;-60
2023/09/25 10:46:39;;;;;;;2.60;1.35;;;;;;;33.72;21.14;94429.41;5032256;28;20052;-60
2023/09/25 10:49:08;;;;;;;3.13;1.30;;;;;;;33.62;21.64;94423.44;5031567;28;20045;-60
2023/09/25 10:51:35;;;;;;;2.30;1.10;;;;;;;35.60;20.34;94427.75;5032172;28;20056;-60
2023/09/25 10:54:03;;;;;;;2.88;1.17;;;;;;;37.15;18.60;94425.34;5031426;28;20049;-60
2023/09/25 10:56:30;;;;;;;3.20;1.40;;;;;;;36.62;18.58;94423.44;5031828;28;20056;-60
2023/09/25 10:58:57;;;;;;;2.35;1.20;;;;;;;35.75;19.45;94429.88;5031429;28;20063;-60
2023/09/25 11:01:27;;;;;;;2.47;1.10;;;;;;;37.04;19.12;94420.78;5031976;28;20068;-60
2023/09/25 11:03:57;;;;;;;2.80;1.20;;;;;;;35.14;20.53;94424.81;5030917;28;20110;-60
2023/09/25 11:06:25;;;;;;;4.03;1.20;;;;;;;34.13;21.71;94428.56;5046703;28;20413;-60
2023/09/25 11:09:11;;;;;;;2.70;1.13;;;;;;;35.98;19.48;94438.44;5031424;28;20059;-60
2023/09/25 11:11:40;;;;;;;2.80;1.30;;;;;;;35.38;20.38;94437.81;5031922;28;20063;-60
2023/09/25 11:14:08;;;;;;;2.90;1.30;;;;;;;34.56;20.94;94441.34;5037736;28;20178;-59
2023/09/25 11:16:34;;;;;;;2.73;1.10;;;;;;;32.16;23.45;94438.84;5038384;28;20041;-60
2023/09/25 11:19:15;;;;;;;2.35;1.10;;;;;;;32.32;23.10;94437.00;5031862;28;20052;-60
2023/09/25 11:21:46;;;;;;;3.45;1.35;;;;;;;31.34;24.45;94436.41;5031141;28;20051;-61
2023/09/25 11:24:14;;;;;;;2.75;1.25;;;;;;;28.31;27.70;94443.81;5031234;28;20041;-60
2023/09/25 11:26:42;;;;;;;4.20;1.33;;;;;;;25.58;31.77;94446.81;5039596;28;20049;-61
2023/09/25 11:29:11;;;;;;;2.10;1.20;;;;;;;27.85;29.10;94435.50;5037206;28;20832;-63
2023/09/25 11:31:39;;;;;;;3.10;1.40;;;;;;;23.72;34.35;94453.34;5029524;28;20053;-60
2023/09/25 11:34:09;;;;;;;3.05;1.42;;;;;;;24.74;33.74;94446.91;5030138;28;21544;-60
2023/09/25 11:36:44;;;;;;;3.60;1.30;;;;;;;23.70;35.75;94439.03;5042729;28;20048;-60